createdAt,value
2022-10-03T00:02:27.908Z,2.40
2022-10-03T00:05:28.529Z,2.10
2022-10-03T00:08:15.134Z,2.20
2022-10-03T00:10:50.369Z,2.17
2022-10-03T00:13:25.506Z,1.93
2022-10-03T00:16:02.277Z,2.23
2022-10-03T00:18:47.581Z,2.80
2022-10-03T00:21:30.273Z,2.20
2022-10-03T00:24:13.874Z,2.03
2022-10-03T00:27:01.140Z,2.07
2022-10-03T00:29:44.216Z,2.17
2022-10-03T00:32:26.351Z,1.70
2022-10-03T00:35:12.236Z,2.63
2022-10-03T00:38:03.351Z,2.10
2022-10-03T00:40:51.841Z,1.90
2022-10-03T00:43:43.289Z,2.40
2022-10-03T00:46:51.685Z,2.27
2022-10-03T00:49:27.244Z,2.37
2022-10-03T00:52:08.717Z,2.00
2022-10-03T00:54:53.062Z,2.37
2022-10-03T00:57:39.313Z,2.73
2022-10-03T01:00:26.822Z,2.57
2022-10-03T01:03:24.264Z,2.77
2022-10-03T01:06:09.434Z,2.50
2022-10-03T01:08:55.013Z,2.60
2022-10-03T01:11:46.615Z,2.70
2022-10-03T01:14:27.037Z,2.80
2022-10-03T01:17:09.593Z,2.40
2022-10-03T01:20:01.702Z,2.50
2022-10-03T01:22:39.812Z,2.40
2022-10-03T01:25:19.739Z,2.60
2022-10-03T01:28:17.044Z,2.60
2022-10-03T01:30:49.272Z,2.17
2022-10-03T01:33:28.485Z,2.70
2022-10-03T01:36:08.612Z,2.97
2022-10-03T01:38:47.145Z,2.50
2022-10-03T01:41:43.137Z,2.70
2022-10-03T01:44:10.210Z,2.73
2022-10-03T01:46:43.953Z,2.70
2022-10-03T01:49:38.237Z,1.90
2022-10-03T01:52:32.003Z,2.63
2022-10-03T01:55:10.472Z,2.53
2022-10-03T01:57:55.095Z,2.40
2022-10-03T02:00:25.804Z,2.53
2022-10-03T02:03:14.000Z,2.60
2022-10-03T02:06:06.680Z,2.63
2022-10-03T02:08:52.027Z,2.47
2022-10-03T02:11:44.331Z,2.67
2022-10-03T02:14:32.288Z,2.30
2022-10-03T02:17:05.368Z,2.77
2022-10-03T02:19:48.342Z,2.90
2022-10-03T02:22:32.070Z,2.97
2022-10-03T02:25:10.678Z,2.33
2022-10-03T02:28:04.943Z,2.40
2022-10-03T02:30:47.706Z,2.30
2022-10-03T02:33:33.124Z,2.27
2022-10-03T02:36:02.560Z,3.10
2022-10-03T02:38:54.007Z,2.40
2022-10-03T02:41:32.678Z,2.70
2022-10-03T02:44:20.595Z,2.23
2022-10-03T02:47:16.927Z,2.73
2022-10-03T02:50:07.739Z,2.63
2022-10-03T02:53:11.866Z,3.03
2022-10-03T02:55:44.334Z,3.00
2022-10-03T02:58:28.745Z,2.50
2022-10-03T03:01:49.826Z,2.77
2022-10-03T03:05:00.250Z,2.60
2022-10-03T03:08:05.687Z,2.90
2022-10-03T03:10:37.991Z,2.90
2022-10-03T03:13:42.550Z,2.83
2022-10-03T03:16:38.402Z,2.30
2022-10-03T03:19:14.002Z,2.23
2022-10-03T03:21:53.149Z,2.67
2022-10-03T03:24:32.441Z,2.50
2022-10-03T03:27:22.672Z,2.60
2022-10-03T03:30:08.157Z,2.87
2022-10-03T03:33:11.659Z,3.07
2022-10-03T03:35:46.383Z,2.67
2022-10-03T03:38:30.237Z,2.70
2022-10-03T03:41:26.590Z,2.60
2022-10-03T03:44:20.195Z,2.60
2022-10-03T03:47:18.847Z,2.50
2022-10-03T03:49:51.455Z,2.50
2022-10-03T03:52:55.528Z,2.50
2022-10-03T03:55:27.580Z,2.87
2022-10-03T03:58:13.106Z,2.90
2022-10-03T04:01:04.234Z,2.60
2022-10-03T04:03:53.109Z,2.67
2022-10-03T04:06:46.179Z,2.90
2022-10-03T04:09:29.829Z,2.73
2022-10-03T04:12:24.625Z,2.23
2022-10-03T04:15:09.810Z,3.20
2022-10-03T04:18:19.303Z,3.27
2022-10-03T04:21:19.059Z,3.13
2022-10-03T04:23:51.929Z,2.60
2022-10-03T04:26:41.149Z,2.57
2022-10-03T04:29:25.976Z,2.50
2022-10-03T04:32:11.129Z,2.87
2022-10-03T04:34:46.560Z,3.37
2022-10-03T04:37:27.818Z,3.10
2022-10-03T04:40:16.059Z,2.27
2022-10-03T04:43:14.881Z,2.93
2022-10-03T04:46:18.890Z,2.80
2022-10-03T04:49:02.995Z,2.73
2022-10-03T04:51:38.815Z,2.40
2022-10-03T04:54:19.293Z,2.63
2022-10-03T04:57:10.461Z,2.90
2022-10-03T05:00:35.451Z,2.57
2022-10-03T05:03:13.368Z,3.20
2022-10-03T05:05:56.586Z,2.93
2022-10-03T05:08:43.883Z,2.80
2022-10-03T05:11:37.607Z,3.03
2022-10-03T05:14:15.886Z,2.93
2022-10-03T05:17:09.751Z,3.13
2022-10-03T05:19:53.832Z,2.63
2022-10-03T05:22:51.980Z,2.77
2022-10-03T05:25:43.395Z,2.80
2022-10-03T05:28:28.784Z,3.30
2022-10-03T05:31:20.292Z,2.97
2022-10-03T05:33:54.245Z,3.40
2022-10-03T05:36:45.248Z,3.23
2022-10-03T05:39:38.524Z,2.80
2022-10-03T05:42:24.005Z,3.40
2022-10-03T05:45:08.999Z,3.23
2022-10-03T05:48:01.736Z,3.17
2022-10-03T05:50:35.080Z,3.10
2022-10-03T05:53:28.299Z,3.03
2022-10-03T05:56:07.212Z,3.27
2022-10-03T05:58:54.271Z,2.73
2022-10-03T06:01:32.540Z,3.40
2022-10-03T06:04:07.919Z,3.20
2022-10-03T06:06:59.042Z,3.37
2022-10-03T06:10:04.578Z,3.10
2022-10-03T06:12:42.386Z,3.00
2022-10-03T06:15:38.409Z,3.27
2022-10-03T06:18:33.666Z,3.77
2022-10-03T06:21:18.804Z,2.70
2022-10-03T06:24:06.911Z,2.80
2022-10-03T06:27:11.067Z,3.10
2022-10-03T06:29:56.590Z,3.10
2022-10-03T06:32:25.858Z,3.17
2022-10-03T06:35:04.376Z,3.50
2022-10-03T06:37:39.793Z,3.63
2022-10-03T06:40:40.890Z,3.50
2022-10-03T06:43:45.219Z,3.73
2022-10-03T06:46:16.011Z,3.10
2022-10-03T06:49:20.013Z,2.53
2022-10-03T06:52:01.314Z,3.10
2022-10-03T06:55:16.994Z,2.57
2022-10-03T06:58:11.529Z,2.90
2022-10-03T07:01:02.867Z,3.40
2022-10-03T07:03:38.179Z,2.87
2022-10-03T07:06:12.316Z,2.67
2022-10-03T07:09:18.045Z,3.33
2022-10-03T07:12:14.445Z,2.77
2022-10-03T07:15:05.300Z,3.57
2022-10-03T07:17:45.999Z,3.23
2022-10-03T07:20:46.598Z,3.57
2022-10-03T07:23:38.126Z,2.77
2022-10-03T07:26:21.318Z,3.17
2022-10-03T07:29:08.347Z,2.97
2022-10-03T07:31:58.730Z,2.83
2022-10-03T07:34:37.299Z,2.93
2022-10-03T07:37:41.222Z,2.80
2022-10-03T07:40:23.439Z,3.00
2022-10-03T07:43:17.581Z,2.63
2022-10-03T07:46:08.396Z,2.70
2022-10-03T07:49:07.689Z,2.77
2022-10-03T07:51:41.379Z,3.93
2022-10-03T07:54:19.583Z,3.13
2022-10-03T07:56:57.987Z,3.00
2022-10-03T07:59:58.675Z,2.70
2022-10-03T08:03:02.374Z,2.53
2022-10-03T08:05:54.553Z,3.23
2022-10-03T08:08:37.040Z,3.40
2022-10-03T08:11:26.615Z,2.50
2022-10-03T08:14:04.871Z,2.43
2022-10-03T08:17:21.224Z,3.00
2022-10-03T08:20:01.835Z,2.20
2022-10-03T08:22:42.666Z,2.63
2022-10-03T08:25:29.492Z,2.40
2022-10-03T08:28:33.656Z,2.50
2022-10-03T08:31:18.638Z,3.00
2022-10-03T08:34:03.249Z,2.60
2022-10-03T08:36:49.630Z,2.30
2022-10-03T08:39:27.842Z,2.63
2022-10-03T08:42:12.060Z,2.30
2022-10-03T08:44:53.866Z,2.47
2022-10-03T08:47:54.062Z,2.57
2022-10-03T08:50:38.501Z,2.27
2022-10-03T08:53:13.766Z,2.60
2022-10-03T08:55:55.874Z,2.77
2022-10-03T08:58:48.643Z,2.10
2022-10-03T09:01:39.830Z,2.23
2022-10-03T09:04:51.312Z,2.60
2022-10-03T09:07:31.262Z,2.63
2022-10-03T09:10:20.369Z,3.17
2022-10-03T09:13:17.155Z,3.20
2022-10-03T09:16:22.786Z,2.70
2022-10-03T09:19:05.808Z,2.47
2022-10-03T09:21:56.750Z,3.00
2022-10-03T09:24:47.891Z,3.60
2022-10-03T09:27:35.527Z,3.13
2022-10-03T09:30:07.786Z,3.00
2022-10-03T09:32:52.870Z,2.83
2022-10-03T09:35:40.505Z,2.70
2022-10-03T09:38:43.994Z,3.33
2022-10-03T09:41:44.124Z,2.87
2022-10-03T09:44:28.524Z,3.10
2022-10-03T09:47:29.053Z,3.23
2022-10-03T09:50:38.753Z,2.93
2022-10-03T09:53:30.241Z,2.73
2022-10-03T09:56:33.890Z,2.67
2022-10-03T09:59:31.556Z,2.57
2022-10-03T10:02:33.526Z,2.77
2022-10-03T10:05:31.963Z,2.70
2022-10-03T10:08:17.382Z,2.83
2022-10-03T10:11:10.322Z,2.77
2022-10-03T10:14:14.623Z,2.83
2022-10-03T10:16:49.193Z,2.80
2022-10-03T10:19:31.501Z,2.63
2022-10-03T10:22:09.954Z,2.53
2022-10-03T10:25:07.450Z,2.43
2022-10-03T10:28:02.343Z,2.30
2022-10-03T10:31:02.503Z,2.40
2022-10-03T10:33:41.051Z,1.70
2022-10-03T10:36:50.836Z,2.07
2022-10-03T10:39:48.281Z,1.93
2022-10-03T10:42:52.491Z,1.77
2022-10-03T10:45:39.019Z,1.80
2022-10-03T10:48:37.401Z,2.00
2022-10-03T10:51:18.810Z,1.67
2022-10-03T10:54:27.568Z,1.20
2022-10-03T10:57:19.406Z,1.10
2022-10-03T11:00:15.287Z,1.60
2022-10-03T11:03:09.018Z,1.40
2022-10-03T11:06:12.607Z,1.00
2022-10-03T11:08:51.533Z,1.30
2022-10-03T11:11:45.735Z,1.57
2022-10-03T11:14:49.162Z,1.20
2022-10-03T11:17:38.133Z,0.90
2022-10-03T11:20:51.489Z,1.50
2022-10-03T11:23:59.457Z,1.40
2022-10-03T11:27:03.311Z,1.10
2022-10-03T11:29:52.024Z,1.43
2022-10-03T11:32:30.302Z,1.43
2022-10-03T11:35:25.821Z,1.00
2022-10-03T11:37:58.844Z,1.20
2022-10-03T11:40:50.952Z,0.87
2022-10-03T11:43:36.125Z,1.17
2022-10-03T11:46:36.464Z,0.90
2022-10-03T11:49:31.025Z,1.10
2022-10-03T11:52:05.690Z,1.70
2022-10-03T11:54:37.220Z,1.20
2022-10-03T11:57:08.745Z,1.50
2022-10-03T11:59:56.114Z,1.30
2022-10-03T12:02:49.920Z,0.90
2022-10-03T12:05:33.964Z,1.07
2022-10-03T12:08:39.100Z,1.20
2022-10-03T12:11:07.040Z,1.33
2022-10-03T12:13:47.566Z,1.43
2022-10-03T12:16:27.768Z,1.30
2022-10-03T12:19:23.933Z,0.93
2022-10-03T12:22:18.183Z,1.10
2022-10-03T12:24:47.158Z,0.80
2022-10-03T12:27:31.389Z,1.00
2022-10-03T12:30:02.218Z,1.13
2022-10-03T12:32:32.551Z,1.10
2022-10-03T12:35:29.633Z,1.40
2022-10-03T12:38:07.833Z,1.20
2022-10-03T12:40:40.053Z,1.13
2022-10-03T12:43:41.969Z,0.90
2022-10-03T12:46:28.099Z,1.33
2022-10-03T12:49:33.004Z,1.10
2022-10-03T12:52:16.930Z,1.20
2022-10-03T12:54:55.537Z,0.97
2022-10-03T12:57:46.404Z,1.00
2022-10-03T13:01:05.612Z,0.80
2022-10-03T13:03:52.427Z,1.20
2022-10-03T13:07:02.391Z,1.10
2022-10-03T13:09:58.152Z,1.20
2022-10-03T13:12:44.589Z,0.90
2022-10-03T13:15:32.014Z,1.00
2022-10-03T13:18:06.101Z,1.03
2022-10-03T13:20:42.393Z,1.73
2022-10-03T13:23:21.138Z,1.20
2022-10-03T13:26:13.681Z,1.03
2022-10-03T13:29:14.089Z,2.03
2022-10-03T13:32:07.444Z,1.50
2022-10-03T13:34:45.369Z,1.70
2022-10-03T13:37:41.297Z,1.37
2022-10-03T13:40:15.825Z,1.63
2022-10-03T13:42:53.676Z,1.30
2022-10-03T13:45:25.490Z,1.20
2022-10-03T13:48:04.954Z,1.10
2022-10-03T13:50:45.426Z,1.10
2022-10-03T13:53:24.656Z,1.13
2022-10-03T13:56:07.473Z,1.13
2022-10-03T13:58:58.702Z,1.23
2022-10-03T14:01:37.064Z,1.00
2022-10-03T14:04:09.914Z,1.13
2022-10-03T14:07:04.458Z,1.07
2022-10-03T14:09:52.719Z,1.47
2022-10-03T14:12:55.927Z,1.50
2022-10-03T14:15:28.745Z,1.00
2022-10-03T14:18:13.717Z,1.20
2022-10-03T14:20:56.281Z,1.10
2022-10-03T14:23:35.606Z,1.20
2022-10-03T14:26:11.307Z,1.10
2022-10-03T14:28:47.791Z,1.60
2022-10-03T14:31:31.941Z,1.50
2022-10-03T14:34:09.899Z,1.30
2022-10-03T14:36:54.143Z,1.90
2022-10-03T14:39:40.061Z,1.53
2022-10-03T14:42:06.396Z,1.30
2022-10-03T14:44:43.878Z,1.20
2022-10-03T14:47:18.731Z,1.73
2022-10-03T14:49:59.546Z,2.03
2022-10-03T14:52:41.204Z,1.37
2022-10-03T14:55:14.571Z,1.67
2022-10-03T14:58:08.734Z,1.37
2022-10-03T15:00:43.603Z,1.60
2022-10-03T15:03:16.101Z,1.30
2022-10-03T15:06:03.490Z,1.50
2022-10-03T15:08:43.283Z,1.60
2022-10-03T15:11:13.900Z,1.03
2022-10-03T15:13:51.167Z,1.27
2022-10-03T15:16:21.202Z,1.20
2022-10-03T15:18:58.500Z,1.50
2022-10-03T15:21:27.098Z,1.20
2022-10-03T15:24:02.460Z,1.50
2022-10-03T15:26:33.463Z,1.57
2022-10-03T15:29:03.852Z,1.50
2022-10-03T15:31:30.304Z,1.70
2022-10-03T15:33:57.743Z,1.60
2022-10-03T15:36:28.988Z,1.67
2022-10-03T15:39:00.574Z,1.40
2022-10-03T15:41:34.965Z,1.87
2022-10-03T15:44:06.306Z,1.30
2022-10-03T15:46:53.038Z,1.90
2022-10-03T15:49:39.909Z,1.60
2022-10-03T15:52:15.734Z,1.03
2022-10-03T15:54:46.703Z,1.87
2022-10-03T15:57:21.647Z,1.53
2022-10-03T15:59:55.768Z,1.80
2022-10-03T16:02:31.803Z,1.30
2022-10-03T16:04:58.625Z,1.40
2022-10-03T16:07:39.185Z,1.87
2022-10-03T16:10:15.581Z,1.40
2022-10-03T16:13:06.085Z,1.20
2022-10-03T16:15:57.295Z,1.33
2022-10-03T16:18:48.706Z,1.37
2022-10-03T16:21:38.079Z,1.60
2022-10-03T16:24:08.103Z,1.77
2022-10-03T16:26:48.363Z,1.30
2022-10-03T16:29:43.361Z,1.20
2022-10-03T16:32:23.966Z,1.40
2022-10-03T16:34:51.455Z,1.60
2022-10-03T16:37:21.636Z,1.47
2022-10-03T16:39:56.490Z,2.10
2022-10-03T16:42:26.633Z,2.00
2022-10-03T16:44:56.918Z,1.83
2022-10-03T16:47:36.256Z,1.47
2022-10-03T16:50:22.578Z,1.40
2022-10-03T16:52:53.075Z,1.40
2022-10-03T16:55:36.087Z,1.50
2022-10-03T16:58:08.631Z,1.90
2022-10-03T17:00:44.405Z,1.40
2022-10-03T17:03:21.363Z,2.27
2022-10-03T17:05:51.931Z,2.17
2022-10-03T17:08:40.667Z,1.90
2022-10-03T17:11:08.403Z,1.93
2022-10-03T17:13:52.488Z,1.73
2022-10-03T17:16:29.931Z,1.47
2022-10-03T17:19:27.048Z,1.90
2022-10-03T17:21:56.783Z,1.70
2022-10-03T17:24:45.467Z,1.83
2022-10-03T17:27:23.023Z,1.77
2022-10-03T17:30:22.822Z,1.90
2022-10-03T17:32:57.695Z,1.90
2022-10-03T17:35:38.637Z,2.00
2022-10-03T17:38:50.371Z,1.93
2022-10-03T17:41:24.306Z,1.60
2022-10-03T17:44:17.200Z,2.10
2022-10-03T17:47:18.836Z,1.83
2022-10-03T17:50:00.562Z,1.73
2022-10-03T17:52:29.608Z,2.37
2022-10-03T17:55:05.090Z,1.80
2022-10-03T17:57:34.535Z,2.40
2022-10-03T18:00:09.436Z,2.00
2022-10-03T18:03:02.105Z,1.90
2022-10-03T18:05:36.008Z,2.23
2022-10-03T18:08:12.736Z,2.03
2022-10-03T18:10:47.584Z,1.60
2022-10-03T18:13:18.107Z,1.70
2022-10-03T18:16:14.266Z,1.70
2022-10-03T18:19:20.326Z,1.83
2022-10-03T18:22:11.119Z,1.63
2022-10-03T18:24:57.783Z,1.60
2022-10-03T18:27:54.551Z,1.63
2022-10-03T18:30:31.307Z,1.70
2022-10-03T18:33:01.300Z,1.60
2022-10-03T18:35:35.604Z,1.70
2022-10-03T18:38:10.717Z,1.80
2022-10-03T18:40:45.131Z,1.70
2022-10-03T18:43:31.885Z,1.53
2022-10-03T18:46:14.401Z,2.03
2022-10-03T18:49:03.231Z,1.77
2022-10-03T18:51:45.831Z,1.87
2022-10-03T18:54:24.078Z,1.93
2022-10-03T18:57:28.081Z,1.90
2022-10-03T19:00:07.802Z,2.20
2022-10-03T19:02:55.028Z,1.67
2022-10-03T19:05:36.279Z,2.10
2022-10-03T19:08:11.341Z,2.03
2022-10-03T19:10:50.127Z,1.80
2022-10-03T19:13:34.738Z,1.90
2022-10-03T19:16:03.897Z,3.00
2022-10-03T19:18:44.122Z,2.67
2022-10-03T19:21:20.048Z,2.60
2022-10-03T19:23:52.983Z,2.43
2022-10-03T19:26:23.569Z,2.70
2022-10-03T19:28:54.719Z,2.20
2022-10-03T19:31:59.710Z,2.70
2022-10-03T19:34:42.589Z,2.37
2022-10-03T19:37:20.937Z,2.90
2022-10-03T19:39:48.134Z,2.10
2022-10-03T19:42:27.631Z,2.20
2022-10-03T19:44:59.573Z,2.10
2022-10-03T19:47:33.962Z,2.20
2022-10-03T19:50:20.529Z,2.80
2022-10-03T19:52:48.863Z,2.37
2022-10-03T19:55:22.161Z,2.00
2022-10-03T19:57:56.599Z,3.13
2022-10-03T20:00:37.830Z,2.87
2022-10-03T20:03:13.234Z,2.97
2022-10-03T20:05:50.417Z,2.50
2022-10-03T20:08:32.140Z,2.97
2022-10-03T20:11:14.496Z,3.23
2022-10-03T20:13:47.861Z,2.70
2022-10-03T20:16:21.712Z,3.17
2022-10-03T20:18:52.402Z,3.20
2022-10-03T20:21:23.795Z,3.10
2022-10-03T20:23:53.864Z,3.50
2022-10-03T20:26:34.220Z,3.10
2022-10-03T20:29:20.047Z,3.13
2022-10-03T20:31:47.560Z,3.03
2022-10-03T20:34:17.392Z,3.13
2022-10-03T20:36:49.443Z,3.50
2022-10-03T20:39:25.443Z,3.60
2022-10-03T20:42:00.759Z,3.60
2022-10-03T20:44:55.352Z,3.93
2022-10-03T20:47:40.301Z,3.60
2022-10-03T20:50:20.263Z,3.23
2022-10-03T20:52:56.636Z,2.60
2022-10-03T20:55:27.599Z,2.30
2022-10-03T20:58:04.387Z,4.50
2022-10-03T21:00:31.214Z,3.87
2022-10-03T21:03:13.426Z,3.67
2022-10-03T21:05:48.628Z,3.80
2022-10-03T21:08:37.005Z,4.37
2022-10-03T21:11:25.437Z,4.60
2022-10-03T21:13:57.514Z,4.80
2022-10-03T21:16:28.416Z,4.47
2022-10-03T21:19:02.098Z,4.80
2022-10-03T21:21:37.442Z,4.93
2022-10-03T21:24:17.032Z,4.60
2022-10-03T21:26:52.390Z,4.27
2022-10-03T21:29:24.668Z,4.70
2022-10-03T21:32:28.881Z,4.60
2022-10-03T21:35:26.921Z,4.60
2022-10-03T21:38:18.267Z,4.60
2022-10-03T21:41:12.339Z,5.50
2022-10-03T21:43:44.628Z,4.83
2022-10-03T21:46:20.717Z,5.33
2022-10-03T21:49:07.019Z,4.63
2022-10-03T21:52:06.088Z,5.40
2022-10-03T21:55:04.130Z,5.10
2022-10-03T21:57:55.586Z,4.80
2022-10-03T22:01:12.814Z,5.40
2022-10-03T22:03:59.505Z,4.90
2022-10-03T22:06:39.570Z,5.27
2022-10-03T22:09:13.054Z,4.90
2022-10-03T22:11:44.118Z,5.83
2022-10-03T22:14:42.057Z,5.03
2022-10-03T22:17:17.391Z,5.60
2022-10-03T22:20:12.718Z,5.40
2022-10-03T22:23:10.868Z,5.67
2022-10-03T22:25:52.659Z,5.80
2022-10-03T22:28:43.959Z,5.77
2022-10-03T22:31:19.221Z,5.60
2022-10-03T22:33:48.390Z,5.77
2022-10-03T22:36:16.899Z,5.60
2022-10-03T22:38:44.751Z,5.73
2022-10-03T22:41:16.145Z,6.20
2022-10-03T22:43:43.696Z,6.83
2022-10-03T22:46:14.405Z,6.27
2022-10-03T22:48:46.104Z,6.17
2022-10-03T22:51:15.067Z,5.90
2022-10-03T22:53:47.515Z,6.27
2022-10-03T22:56:35.553Z,5.93
2022-10-03T22:59:06.122Z,6.27
2022-10-03T23:01:34.546Z,6.30
2022-10-03T23:04:03.267Z,6.30
2022-10-03T23:06:42.827Z,7.13
2022-10-03T23:09:22.178Z,6.17
2022-10-03T23:11:51.467Z,6.57
2022-10-03T23:14:26.966Z,6.10
2022-10-03T23:17:27.717Z,5.97
2022-10-03T23:20:24.841Z,6.70
2022-10-03T23:22:58.427Z,5.70
2022-10-03T23:25:33.992Z,6.27
2022-10-03T23:28:17.861Z,6.00
2022-10-03T23:30:54.454Z,5.80
2022-10-03T23:33:32.988Z,6.87
2022-10-03T23:36:30.275Z,6.10
2022-10-03T23:38:59.835Z,6.33
2022-10-03T23:41:42.226Z,6.73
2022-10-03T23:44:34.378Z,6.00
2022-10-03T23:47:01.696Z,5.27
2022-10-03T23:49:28.624Z,5.83
2022-10-03T23:51:56.280Z,6.20
2022-10-03T23:54:22.708Z,5.97
2022-10-03T23:56:50.214Z,6.00
2022-10-03T23:59:16.590Z,6.03
